Time;durP1;ratioP1;P1;durP2;ratioP2;P2;SDS_P1;SDS_P2;PMS_P1;PMS_P2;Temp;Humidity;BMP_temperature;BMP_pressure;BME280_temperature;BME280_humidity;BME280_pressure;Samples;Min_cycle;Max_cycle;Signal;HPM_P1;HPM_P2
2022/05/16 00:02:24;;;;;;;6.30;5.80;;;;;;;22.61;41.92;95421.94;6142908;28;104027;-56
2022/05/16 00:05:27;;;;;;;6.53;5.97;;;;;;;22.64;41.64;95426.66;6160431;28;104155;-56
2022/05/16 00:08:31;;;;;;;5.70;5.30;;;;;;;22.68;41.84;95424.19;6147000;28;104588;-56
2022/05/16 00:11:35;;;;;;;6.17;5.77;;;;;;;22.76;41.69;95425.38;6153833;28;104437;-56
2022/05/16 00:14:40;;;;;;;5.77;5.33;;;;;;;22.79;41.00;95428.22;6137478;28;103194;-56
2022/05/16 00:17:44;;;;;;;6.47;5.97;;;;;;;22.82;40.95;95429.50;6159581;28;103918;-56
2022/05/16 00:20:47;;;;;;;6.30;5.90;;;;;;;22.80;40.93;95416.47;6149581;28;103377;-56
2022/05/16 00:23:51;;;;;;;5.97;5.57;;;;;;;22.78;41.43;95423.97;6151339;28;104334;-57
2022/05/16 00:26:55;;;;;;;6.20;5.80;;;;;;;22.76;41.36;95418.16;6143995;28;104047;-56
2022/05/16 00:29:58;;;;;;;6.50;6.10;;;;;;;22.79;41.45;95414.88;6164351;28;104193;-56
2022/05/16 00:33:01;;;;;;;6.90;6.10;;;;;;;22.80;41.26;95421.00;6161452;28;102744;-56
2022/05/16 00:36:05;;;;;;;6.20;5.70;;;;;;;22.77;40.94;95414.41;6132940;28;102942;-56
2022/05/16 00:39:09;;;;;;;5.80;5.40;;;;;;;22.73;41.04;95409.97;6154669;28;103081;-56
2022/05/16 00:42:13;;;;;;;6.67;5.70;;;;;;;22.73;40.96;95416.09;6154185;28;103209;-56
2022/05/16 00:45:18;;;;;;;5.67;5.37;;;;;;;22.67;41.04;95419.94;6161843;28;104133;-56
2022/05/16 00:48:22;;;;;;;6.15;5.75;;;;;;;22.59;40.94;95412.66;6137816;28;102984;-56
2022/05/16 00:51:30;;;;;;;6.77;5.70;;;;;;;22.57;40.86;95420.97;6155791;28;104181;-56
2022/05/16 00:54:40;;;;;;;6.40;5.90;;;;;;;22.42;41.40;95422.03;6145867;28;103172;-57
2022/05/16 00:57:46;;;;;;;6.00;5.60;;;;;;;22.38;41.23;95420.28;6158000;28;103965;-56
2022/05/16 01:00:49;;;;;;;6.60;6.00;;;;;;;22.33;41.92;95415.81;6146407;28;103139;-56
2022/05/16 01:07:19;;;;;;;6.40;5.83;;;;;;;22.32;41.75;95416.13;6158563;28;103180;-56
2022/05/16 01:10:24;;;;;;;6.87;6.27;;;;;;;22.37;41.70;95413.38;6133824;28;103166;-55
2022/05/16 01:13:28;;;;;;;6.40;5.90;;;;;;;22.45;41.12;95407.31;6155915;28;103291;-56
2022/05/16 01:16:31;;;;;;;6.50;6.10;;;;;;;22.48;41.23;95411.25;6164179;28;103381;-55
2022/05/16 01:19:35;;;;;;;6.17;5.57;;;;;;;22.51;41.25;95416.78;6150289;28;103233;-55
2022/05/16 01:22:43;;;;;;;6.40;5.90;;;;;;;22.44;41.24;95411.06;6150208;28;103430;-56
2022/05/16 01:25:46;;;;;;;6.10;5.57;;;;;;;22.40;41.17;95408.22;6140470;28;104660;-56
2022/05/16 01:28:49;;;;;;;6.50;5.87;;;;;;;22.41;41.03;95403.69;6140085;28;104131;-55
2022/05/16 01:31:52;;;;;;;5.80;5.40;;;;;;;22.44;41.15;95403.06;6138076;28;103125;-56
2022/05/16 01:34:55;;;;;;;6.33;5.93;;;;;;;22.39;41.45;95405.84;6146393;28;104271;-56
2022/05/16 01:41:23;;;;;;;5.43;5.13;;;;;;;22.41;40.99;95403.69;6161065;28;104156;-56
2022/05/16 01:44:26;;;;;;;6.43;5.93;;;;;;;22.47;41.02;95404.34;6153452;28;103205;-56
2022/05/16 01:47:29;;;;;;;7.17;6.40;;;;;;;22.46;40.79;95408.91;6162688;28;104072;-56
2022/05/16 01:50:32;;;;;;;5.70;5.30;;;;;;;22.40;41.17;95407.44;6163177;28;103330;-56
2022/05/16 01:53:38;;;;;;;6.40;5.90;;;;;;;22.40;41.08;95404.78;6147126;28;104259;-56
2022/05/16 01:56:41;;;;;;;6.67;6.17;;;;;;;22.43;41.28;95409.50;6140279;28;103991;-56
2022/05/16 01:59:44;;;;;;;6.87;6.27;;;;;;;22.46;40.96;95403.56;6162964;28;103010;-55
2022/05/16 02:02:47;;;;;;;6.60;6.20;;;;;;;22.41;41.19;95414.34;6151130;28;104211;-56
2022/05/16 02:05:51;;;;;;;6.77;6.27;;;;;;;22.40;41.45;95413.56;6157642;28;103108;-56
2022/05/16 02:08:55;;;;;;;7.23;6.73;;;;;;;22.40;41.33;95412.75;6156024;28;103037;-56
2022/05/16 02:11:59;;;;;;;6.77;6.27;;;;;;;22.38;41.09;95418.41;6158564;28;104089;-56
2022/05/16 02:15:02;;;;;;;6.53;6.13;;;;;;;22.44;40.80;95427.06;6141638;28;103099;-56
2022/05/16 02:18:07;;;;;;;6.90;6.40;;;;;;;22.44;41.38;95424.41;6136701;28;103045;-56
2022/05/16 02:24:40;;;;;;;7.00;6.50;;;;;;;22.38;41.25;95423.72;6138762;28;104077;-56
2022/05/16 02:27:45;;;;;;;6.50;6.10;;;;;;;22.34;40.94;95416.59;6149621;28;103070;-56
2022/05/16 02:30:49;;;;;;;6.60;6.10;;;;;;;22.26;41.39;95420.78;6145131;28;104169;-55
2022/05/16 02:33:52;;;;;;;6.33;5.87;;;;;;;22.13;40.97;95418.09;6161098;28;103636;-56
2022/05/16 02:36:55;;;;;;;6.63;6.03;;;;;;;22.27;41.28;95424.22;6147865;28;103212;-56
2022/05/16 02:39:59;;;;;;;6.90;6.33;;;;;;;22.38;41.03;95422.94;6133558;28;103850;-56
2022/05/16 02:43:03;;;;;;;6.70;6.10;;;;;;;22.41;40.92;95425.00;6152620;28;103243;-56
2022/05/16 02:46:06;;;;;;;6.97;6.40;;;;;;;22.37;41.11;95424.81;6150965;28;104035;-56
2022/05/16 02:49:10;;;;;;;7.63;7.13;;;;;;;22.34;41.21;95421.94;6147288;28;103399;-56
2022/05/16 02:52:13;;;;;;;8.40;7.80;;;;;;;22.33;40.58;95423.03;6141869;28;104586;-56
2022/05/16 02:55:22;;;;;;;20.53;18.93;;;;;;;22.31;40.95;95419.88;6157862;28;103253;-56
2022/05/16 02:58:25;;;;;;;23.10;21.00;;;;;;;22.32;40.87;95421.44;6158657;28;103895;-56
2022/05/16 03:01:29;;;;;;;16.30;14.80;;;;;;;22.35;41.02;95427.00;6159892;28;103148;-56
2022/05/16 03:04:33;;;;;;;14.80;13.60;;;;;;;22.38;41.12;95434.41;6133531;28;104021;-56
2022/05/16 03:07:36;;;;;;;22.00;20.10;;;;;;;22.43;41.84;95433.50;6151749;28;103640;-56
2022/05/16 03:10:40;;;;;;;30.77;28.10;;;;;;;22.54;41.36;95432.22;6160266;28;103154;-56
2022/05/16 03:13:43;;;;;;;17.40;16.00;;;;;;;22.59;41.05;95432.13;6152584;28;103192;-56
2022/05/16 03:16:47;;;;;;;16.87;15.40;;;;;;;22.65;41.18;95430.13;6154852;28;103227;-56
2022/05/16 03:19:50;;;;;;;24.10;22.00;;;;;;;22.57;41.79;95434.31;6155689;28;103018;-56
2022/05/16 03:22:54;;;;;;;27.30;24.80;;;;;;;22.51;41.99;95432.78;6161928;28;103372;-56
2022/05/16 03:25:58;;;;;;;19.37;17.63;;;;;;;22.48;42.03;95428.06;6146851;28;104498;-55
2022/05/16 03:29:01;;;;;;;14.47;13.10;;;;;;;22.45;42.05;95420.66;6159592;28;104078;-56
2022/05/16 03:32:06;;;;;;;15.33;13.90;;;;;;;22.47;42.47;95418.47;6149642;28;104016;-55
2022/05/16 03:35:09;;;;;;;14.30;13.00;;;;;;;22.55;43.10;95436.47;6148839;28;104128;-56
2022/05/16 03:40:41;;;;;;;16.33;13.83;;;;;;;22.57;42.64;95436.19;6132721;28;104001;-56
2022/05/16 03:41:37;;;;;;;63.40;57.00;;;;;;;22.72;44.47;95445.75;6155832;28;103207;-56
2022/05/16 03:44:41;;;;;;;42.03;37.87;;;;;;;22.79;43.17;95440.78;6158877;28;104208;-56
2022/05/16 03:47:44;;;;;;;33.30;26.67;;;;;;;22.94;42.91;95437.78;6152130;28;103269;-56
2022/05/16 03:50:47;;;;;;;29.80;27.20;;;;;;;23.03;42.21;95451.22;6153558;28;103561;-55
2022/05/16 03:53:50;;;;;;;28.93;26.37;;;;;;;23.10;42.69;95455.03;6143466;28;104299;-56
2022/05/16 03:56:55;;;;;;;21.00;19.20;;;;;;;23.11;42.50;95459.28;6151912;28;104093;-57
2022/05/16 03:59:58;;;;;;;20.33;18.30;;;;;;;23.04;42.64;95464.25;6143148;28;103837;-57
2022/05/16 04:03:01;;;;;;;18.67;16.63;;;;;;;23.04;42.79;95469.59;6144279;28;104086;-56
2022/05/16 04:06:05;;;;;;;18.97;17.33;;;;;;;23.11;42.40;95480.63;6139632;28;103541;-57
2022/05/16 04:09:08;;;;;;;15.83;14.53;;;;;;;22.92;43.11;95472.00;6152360;28;104047;-56
2022/05/16 04:12:13;;;;;;;18.37;16.00;;;;;;;22.91;43.82;95479.22;6149047;28;102886;-58
2022/05/16 04:15:17;;;;;;;20.63;18.57;;;;;;;23.01;43.14;95475.50;6156221;28;103052;-56
2022/05/16 04:18:21;;;;;;;15.77;14.47;;;;;;;23.02;42.92;95482.44;6140975;28;104094;-61
2022/05/16 04:21:24;;;;;;;16.73;15.20;;;;;;;22.99;43.37;95477.69;6139481;28;103572;-54
2022/05/16 04:24:27;;;;;;;13.30;12.23;;;;;;;22.75;43.16;95487.84;6125927;28;104327;-54
2022/05/16 04:27:32;;;;;;;14.57;13.07;;;;;;;22.65;43.92;95500.28;6147554;28;103070;-54
2022/05/16 04:30:36;;;;;;;12.17;11.23;;;;;;;22.57;43.98;95492.19;6158977;28;103482;-54
2022/05/16 04:33:39;;;;;;;12.30;11.23;;;;;;;22.52;44.34;95489.59;6153254;28;104290;-55
2022/05/16 04:36:42;;;;;;;11.30;10.50;;;;;;;22.49;44.05;95487.50;6158923;28;104105;-54
2022/05/16 04:39:45;;;;;;;10.40;9.60;;;;;;;22.44;44.46;95492.94;6158239;28;104145;-54
2022/05/16 04:42:50;;;;;;;11.70;10.50;;;;;;;22.44;44.36;95493.75;6159088;28;103930;-54
2022/05/16 04:45:53;;;;;;;10.30;9.40;;;;;;;22.39;44.36;95493.84;6148515;28;104115;-55
2022/05/16 04:48:56;;;;;;;9.50;8.80;;;;;;;22.38;44.31;95501.06;6158051;28;103065;-54
2022/05/16 04:51:59;;;;;;;9.07;8.20;;;;;;;22.39;43.94;95505.31;6158202;28;104445;-54
2022/05/16 04:55:03;;;;;;;7.87;7.23;;;;;;;22.36;43.81;95497.13;6160317;28;103500;-55
2022/05/16 04:58:09;;;;;;;7.97;7.27;;;;;;;22.36;43.66;95507.78;6151255;28;103916;-55
2022/05/16 05:01:12;;;;;;;8.73;7.40;;;;;;;22.32;43.86;95507.56;6164432;28;103278;-56
2022/05/16 05:04:16;;;;;;;7.33;6.63;;;;;;;22.28;43.89;95506.56;6164946;28;103970;-54
2022/05/16 05:07:19;;;;;;;6.40;6.00;;;;;;;22.32;43.63;95501.44;6159542;28;104073;-55
2022/05/16 05:17:09;;;;;;;7.00;6.40;;;;;;;22.37;43.85;95510.16;6164596;28;104142;-54
2022/05/16 05:20:14;;;;;;;6.90;6.43;;;;;;;22.36;43.58;95513.13;6154636;28;103494;-54
2022/05/16 05:23:17;;;;;;;7.43;6.83;;;;;;;22.33;43.77;95514.47;6164055;28;104232;-54
2022/05/16 05:26:20;;;;;;;7.40;6.80;;;;;;;22.35;43.35;95514.19;6164578;28;104483;-54
2022/05/16 05:29:25;;;;;;;7.80;7.20;;;;;;;22.40;43.85;95532.75;6163833;28;104132;-55
2022/05/16 05:32:28;;;;;;;7.70;7.20;;;;;;;22.41;43.70;95529.00;6155405;28;103958;-54
2022/05/16 05:35:31;;;;;;;7.77;7.10;;;;;;;22.49;43.91;95533.63;6163886;28;104303;-54
2022/05/16 05:38:36;;;;;;;7.47;6.90;;;;;;;22.60;43.33;95528.94;6163948;28;103941;-54
2022/05/16 05:41:39;;;;;;;8.20;7.60;;;;;;;22.69;43.54;95527.97;6158724;28;103044;-54
2022/05/16 05:44:44;;;;;;;8.00;7.40;;;;;;;22.76;43.14;95532.09;6158770;28;103612;-54
2022/05/16 05:47:47;;;;;;;7.77;7.17;;;;;;;22.84;43.48;95531.38;6164227;28;103142;-53
2022/05/16 05:50:50;;;;;;;7.53;6.93;;;;;;;22.92;43.39;95536.03;6163688;28;103156;-54
2022/05/16 05:53:53;;;;;;;7.40;6.87;;;;;;;22.98;42.85;95529.50;6152574;28;103787;-54
2022/05/16 05:56:56;;;;;;;7.47;6.87;;;;;;;23.08;42.73;95529.28;6164697;28;103503;-54
2022/05/16 06:00:02;;;;;;;7.10;6.40;;;;;;;23.15;42.13;95528.88;6163524;28;103016;-54
2022/05/16 06:03:06;;;;;;;6.50;6.00;;;;;;;23.22;42.27;95526.59;6164132;28;102809;-53
2022/05/16 06:06:09;;;;;;;6.60;5.93;;;;;;;23.28;41.86;95528.84;6153104;28;103427;-54
2022/05/16 06:09:12;;;;;;;6.40;6.00;;;;;;;23.36;41.97;95535.41;6163516;28;105202;-55
2022/05/16 06:12:15;;;;;;;6.77;6.27;;;;;;;23.43;42.26;95532.28;6163334;28;104163;-53
2022/05/16 06:15:20;;;;;;;6.70;6.27;;;;;;;23.47;42.23;95527.91;6158744;28;103946;-54
2022/05/16 06:18:23;;;;;;;6.97;6.40;;;;;;;23.53;42.11;95524.06;6158441;28;103894;-53
2022/05/16 06:21:26;;;;;;;6.93;6.33;;;;;;;23.62;41.53;95519.56;6163005;28;103420;-54
2022/05/16 06:27:50;;;;;;;7.33;6.80;;;;;;;23.72;41.60;95516.66;6153731;28;104028;-54
2022/05/16 06:30:56;;;;;;;8.80;6.97;;;;;;;23.76;41.72;95514.94;6162670;28;103278;-54
2022/05/16 06:33:59;;;;;;;9.90;7.20;;;;;;;23.82;41.77;95521.72;6162172;28;103291;-54
2022/05/16 06:37:02;;;;;;;7.60;7.00;;;;;;;23.89;41.37;95521.31;6162831;28;104651;-54
2022/05/16 06:40:07;;;;;;;7.30;6.70;;;;;;;23.94;41.74;95525.75;6153634;28;104173;-54
2022/05/16 06:43:10;;;;;;;6.90;6.20;;;;;;;23.99;41.62;95525.59;6162830;28;103388;-55
2022/05/16 06:46:15;;;;;;;7.40;6.90;;;;;;;24.06;41.49;95523.34;6162847;28;103207;-57
2022/05/16 06:49:19;;;;;;;7.83;7.23;;;;;;;24.04;41.67;95525.53;6158113;28;103976;-53
2022/05/16 06:52:24;;;;;;;6.67;6.17;;;;;;;24.13;41.48;95527.13;6156995;28;103597;-56
2022/05/16 06:55:27;;;;;;;7.60;7.00;;;;;;;24.21;41.36;95522.94;6162793;28;104642;-54
2022/05/16 06:58:30;;;;;;;7.97;7.20;;;;;;;24.26;41.62;95520.13;6162513;28;103157;-53
2022/05/16 07:01:35;;;;;;;7.73;7.17;;;;;;;24.31;41.34;95519.97;6153052;28;104188;-53
2022/05/16 07:04:39;;;;;;;7.03;6.43;;;;;;;24.36;41.47;95516.38;6162967;28;103131;-53
2022/05/16 07:07:43;;;;;;;7.63;6.70;;;;;;;24.41;41.43;95516.25;6161815;28;103211;-53
2022/05/16 07:10:48;;;;;;;7.23;6.53;;;;;;;24.44;41.37;95510.28;6162399;28;104146;-53
2022/05/16 07:13:57;;;;;;;7.13;6.57;;;;;;;24.47;41.53;95510.44;6151910;28;103947;-54
2022/05/16 07:17:01;;;;;;;6.97;6.47;;;;;;;24.50;41.29;95517.84;6162744;28;103735;-53
2022/05/16 07:20:06;;;;;;;6.90;6.40;;;;;;;24.56;41.29;95512.38;6162153;28;103163;-53
2022/05/16 07:23:09;;;;;;;7.50;6.80;;;;;;;24.57;41.08;95513.97;6159250;28;104188;-53
2022/05/16 07:29:33;;;;;;;7.43;6.93;;;;;;;24.65;40.94;95511.28;6162097;28;104137;-53
2022/05/16 07:32:41;;;;;;;7.37;6.67;;;;;;;24.67;41.01;95511.78;6161778;28;104536;-55
2022/05/16 07:35:44;;;;;;;7.50;6.80;;;;;;;24.70;40.72;95513.09;6150756;28;103164;-54
2022/05/16 07:38:48;;;;;;;7.07;6.47;;;;;;;24.73;40.71;95509.78;6162421;28;104185;-55
2022/05/16 07:41:52;;;;;;;7.90;7.23;;;;;;;24.78;40.68;95499.72;6162046;28;104325;-53
2022/05/16 07:44:55;;;;;;;7.93;7.27;;;;;;;24.78;40.83;95505.06;6161821;28;104004;-53
2022/05/16 07:48:03;;;;;;;6.70;6.20;;;;;;;24.80;40.45;95502.09;6151920;28;104061;-53
2022/05/16 07:51:06;;;;;;;7.73;7.13;;;;;;;24.81;40.55;95498.31;6161359;28;103987;-53
2022/05/16 07:54:09;;;;;;;7.17;6.67;;;;;;;24.82;40.36;95499.88;6161647;28;103956;-53
2022/05/16 07:57:12;;;;;;;7.47;6.97;;;;;;;24.85;39.76;95499.25;6160109;28;104164;-54
2022/05/16 08:00:17;;;;;;;6.80;6.30;;;;;;;24.89;40.29;95494.09;6154904;28;104551;-54
2022/05/16 08:03:24;;;;;;;7.80;7.20;;;;;;;24.90;40.14;95504.47;6161337;28;103126;-54
2022/05/16 08:06:27;;;;;;;6.80;6.30;;;;;;;24.91;40.14;95502.59;6161656;28;104278;-54
2022/05/16 08:12:50;;;;;;;6.77;6.20;;;;;;;24.96;40.12;95497.06;6161131;28;104261;-53
2022/05/16 08:15:55;;;;;;;7.80;7.30;;;;;;;24.95;40.02;95488.25;6161184;28;102830;-54
2022/05/16 08:19:00;;;;;;;9.40;8.60;;;;;;;24.99;40.20;95494.56;6161396;28;103112;-54
2022/05/16 08:22:03;;;;;;;7.73;7.13;;;;;;;24.99;39.86;95491.88;6150424;28;103599;-54
2022/05/16 08:25:07;;;;;;;8.60;7.70;;;;;;;24.99;39.94;95493.75;6161803;28;104044;-54
2022/05/16 08:28:10;;;;;;;8.90;8.20;;;;;;;25.00;39.75;95488.09;6160923;28;103103;-53
2022/05/16 08:31:13;;;;;;;8.13;7.43;;;;;;;25.01;39.64;95481.63;6161616;28;103151;-54
2022/05/16 08:34:18;;;;;;;7.33;6.83;;;;;;;25.02;39.48;95482.41;6154046;28;102982;-54
2022/05/16 08:40:54;;;;;;;8.63;7.90;;;;;;;25.04;39.73;95483.72;6165645;28;103255;-54
2022/05/16 08:44:08;;;;;;;7.97;7.37;;;;;;;25.06;39.53;95472.69;6154861;28;104151;-53
2022/05/16 08:47:21;;;;;;;7.93;7.23;;;;;;;25.05;39.86;95479.94;6165704;28;104443;-54
2022/05/16 08:50:34;;;;;;;8.40;7.63;;;;;;;25.06;39.63;95468.13;6164992;28;104498;-54
2022/05/16 08:53:42;;;;;;;7.97;7.37;;;;;;;25.08;39.34;95467.78;6164828;28;103152;-54
2022/05/16 08:56:47;;;;;;;8.37;7.40;;;;;;;25.10;39.54;95473.63;6154113;28;103069;-53
2022/05/16 09:00:02;;;;;;;8.30;7.60;;;;;;;25.08;39.20;95462.44;6164555;28;103036;-54
2022/05/16 09:03:09;;;;;;;8.63;7.30;;;;;;;25.09;39.24;95462.13;6164451;28;102755;-54
2022/05/16 09:06:19;;;;;;;7.73;7.13;;;;;;;25.07;38.93;95464.34;6154054;28;103976;-53
2022/05/16 09:09:26;;;;;;;9.03;7.60;;;;;;;25.09;39.03;95462.13;6164458;28;104047;-53
2022/05/16 09:12:37;;;;;;;7.70;7.10;;;;;;;25.10;38.88;95460.22;6164333;28;103064;-54
2022/05/16 09:15:49;;;;;;;6.90;6.40;;;;;;;25.09;38.71;95455.97;6164886;28;103195;-54
2022/05/16 09:19:01;;;;;;;7.10;6.50;;;;;;;25.08;38.92;95457.09;6153145;28;104147;-54
2022/05/16 09:22:11;;;;;;;7.00;6.50;;;;;;;25.08;38.58;95454.41;6164592;28;103082;-54
2022/05/16 09:25:19;;;;;;;7.60;6.80;;;;;;;25.07;38.18;95453.63;6164245;28;103156;-54
2022/05/16 09:28:37;;;;;;;6.73;6.30;;;;;;;25.07;38.36;95453.63;6159162;28;103260;-54
2022/05/16 09:31:43;;;;;;;7.17;6.57;;;;;;;25.06;38.37;95444.00;6158646;28;104152;-54
2022/05/16 09:34:46;;;;;;;7.17;6.57;;;;;;;25.07;37.92;95440.22;6163118;28;104000;-55
2022/05/16 09:37:54;;;;;;;7.30;6.60;;;;;;;25.06;38.16;95435.97;6164471;28;104320;-54
2022/05/16 09:41:11;;;;;;;6.57;6.10;;;;;;;25.06;38.14;95438.66;6153988;28;103511;-55
2022/05/16 09:44:24;;;;;;;7.07;6.57;;;;;;;25.03;37.82;95436.59;6163624;28;104524;-54
2022/05/16 09:47:37;;;;;;;7.00;6.43;;;;;;;25.03;37.68;95431.25;6164031;28;103437;-53
2022/05/16 09:50:40;;;;;;;6.77;6.00;;;;;;;25.03;37.61;95427.75;6163511;28;104151;-53
2022/05/16 09:53:45;;;;;;;5.80;5.30;;;;;;;25.03;37.53;95420.53;6154542;28;102848;-54
2022/05/16 09:57:16;;;;;;;6.03;5.63;;;;;;;25.01;37.39;95416.59;6163284;28;103071;-54
2022/05/16 10:00:25;;;;;;;6.83;5.90;;;;;;;25.00;37.36;95410.44;6164311;28;103964;-53
2022/05/16 10:03:32;;;;;;;6.27;5.50;;;;;;;25.00;37.33;95404.28;6152506;28;104349;-53
2022/05/16 10:06:41;;;;;;;5.80;5.40;;;;;;;24.99;37.31;95405.41;6163895;28;103178;-54
2022/05/16 10:09:49;;;;;;;6.03;5.60;;;;;;;24.97;37.42;95405.72;6163724;28;103117;-54
2022/05/16 10:12:54;;;;;;;6.17;5.67;;;;;;;24.96;37.37;95401.47;6163364;28;103006;-55
2022/05/16 10:15:59;;;;;;;5.70;5.30;;;;;;;24.91;36.93;95396.28;6153335;28;103559;-54
2022/05/16 10:19:06;;;;;;;6.57;5.97;;;;;;;24.91;37.10;95393.59;6163059;28;103050;-54
2022/05/16 10:22:15;;;;;;;6.17;5.67;;;;;;;24.90;36.97;95392.03;6163583;28;103144;-53
2022/05/16 10:25:25;;;;;;;5.70;5.20;;;;;;;24.90;37.15;95386.66;6158167;28;102842;-55
2022/05/16 10:28:32;;;;;;;5.80;5.40;;;;;;;24.89;37.04;95378.97;6158684;28;103930;-54
2022/05/16 10:35:04;;;;;;;6.37;5.93;;;;;;;24.84;36.71;95363.03;6162134;28;103986;-54
2022/05/16 10:38:11;;;;;;;5.70;5.30;;;;;;;24.84;36.71;95357.69;6152649;28;102922;-53
2022/05/16 10:41:21;;;;;;;6.00;5.50;;;;;;;24.83;36.57;95358.78;6162678;28;103218;-54
2022/05/16 10:44:31;;;;;;;5.60;5.20;;;;;;;24.84;36.54;95355.00;6163011;28;104007;-54
2022/05/16 10:47:40;;;;;;;5.83;5.43;;;;;;;24.79;36.42;95348.72;6161096;28;103906;-55
2022/05/16 10:50:48;;;;;;;5.20;4.90;;;;;;;24.78;36.41;95343.69;6157074;28;104007;-54
2022/05/16 10:54:05;;;;;;;5.90;5.50;;;;;;;24.77;36.20;95352.81;6162697;28;104078;-54
2022/05/16 10:57:24;;;;;;;5.50;5.00;;;;;;;24.75;36.46;95342.44;6162050;28;104346;-54
2022/05/16 11:00:35;;;;;;;5.60;5.13;;;;;;;24.73;36.52;95339.28;6152898;28;104273;-54
2022/05/16 11:03:57;;;;;;;6.10;5.60;;;;;;;24.65;36.36;95350.72;6161798;28;102973;-58
2022/05/16 11:07:10;;;;;;;6.20;5.70;;;;;;;24.53;36.40;95341.72;6162598;28;103290;-59
2022/05/16 11:10:22;;;;;;;8.13;7.47;;;;;;;24.47;35.79;95333.88;6161982;28;103972;-59
2022/05/16 11:13:36;;;;;;;8.90;8.10;;;;;;;24.47;35.61;95333.09;6150900;28;104865;-54
2022/05/16 11:16:40;;;;;;;7.47;6.93;;;;;;;24.55;35.85;95336.88;6152399;28;103126;-54
2022/05/16 11:19:56;;;;;;;7.30;6.80;;;;;;;24.59;35.47;95338.63;6162819;28;104570;-55
2022/05/16 11:23:08;;;;;;;7.40;6.90;;;;;;;24.61;35.37;95327.59;6151428;28;104157;-53
2022/05/16 11:26:17;;;;;;;7.30;6.53;;;;;;;24.61;35.44;95330.25;6162378;28;103315;-55
2022/05/16 11:29:38;;;;;;;6.40;6.00;;;;;;;24.60;35.54;95328.69;6162393;28;104180;-54
2022/05/16 11:32:52;;;;;;;7.53;6.90;;;;;;;24.59;35.31;95330.59;6162166;28;103928;-54
2022/05/16 11:35:59;;;;;;;6.87;6.33;;;;;;;24.58;35.15;95322.88;6150679;28;104360;-54
2022/05/16 11:39:09;;;;;;;6.50;6.00;;;;;;;24.58;35.05;95325.56;6161827;28;103013;-54
2022/05/16 11:42:21;;;;;;;5.77;5.30;;;;;;;24.56;34.99;95319.72;6161900;28;103008;-54
2022/05/16 11:45:38;;;;;;;6.10;5.70;;;;;;;24.55;34.84;95310.91;6151366;28;103296;-53
2022/05/16 11:48:52;;;;;;;6.13;5.63;;;;;;;24.55;34.82;95307.44;6161683;28;102992;-54
2022/05/16 11:52:35;;;;;;;6.03;5.63;;;;;;;24.53;34.90;95299.75;6161249;28;102712;-54
2022/05/16 12:03:16;;;;;;;5.37;4.97;;;;;;;24.49;34.74;95296.09;6095126;28;104120;-53
2022/05/16 12:06:33;;;;;;;5.40;4.90;;;;;;;24.48;34.77;95287.28;6161397;28;103446;-54
2022/05/16 12:09:56;;;;;;;5.10;4.70;;;;;;;24.49;34.66;95280.84;6155850;28;104019;-53
2022/05/16 12:13:27;;;;;;;4.73;4.33;;;;;;;24.48;34.61;95279.25;6165550;28;102983;-53
2022/05/16 12:16:36;;;;;;;5.50;5.10;;;;;;;24.47;34.52;95275.00;6166038;28;104109;-53
2022/05/16 12:19:42;;;;;;;4.43;4.13;;;;;;;24.47;34.81;95263.53;6154634;28;104532;-53
2022/05/16 12:22:48;;;;;;;4.97;4.43;;;;;;;24.47;34.64;95255.50;6165729;28;103117;-53
2022/05/16 12:25:51;;;;;;;4.77;4.40;;;;;;;24.46;34.68;95256.59;6166216;28;104033;-54
2022/05/16 12:29:15;;;;;;;5.00;4.60;;;;;;;24.45;34.78;95258.50;6165484;28;102962;-54
2022/05/16 12:32:52;;;;;;;4.50;4.17;;;;;;;24.43;34.91;95247.31;6155669;28;103948;-54
2022/05/16 12:35:57;;;;;;;4.37;4.07;;;;;;;24.44;34.85;95240.09;6165442;28;102923;-54
2022/05/16 12:39:07;;;;;;;4.67;4.37;;;;;;;24.43;34.82;95241.97;6165031;28;103004;-55
2022/05/16 12:42:24;;;;;;;4.40;4.10;;;;;;;24.42;34.74;95229.69;6155304;28;104931;-54
2022/05/16 12:45:53;;;;;;;4.60;4.30;;;;;;;24.43;34.78;95228.59;6165172;28;103227;-55
2022/05/16 12:49:44;;;;;;;4.47;4.17;;;;;;;24.42;34.54;95227.03;6164964;28;103851;-54
2022/05/16 12:53:21;;;;;;;4.07;3.77;;;;;;;24.42;34.71;95221.69;6143121;28;103809;-55
2022/05/16 12:56:30;;;;;;;3.97;3.67;;;;;;;24.42;34.24;95219.00;6164335;28;103424;-54
2022/05/16 12:59:52;;;;;;;4.23;3.90;;;;;;;24.40;34.46;95207.84;6165109;28;103171;-54
2022/05/16 13:03:20;;;;;;;3.30;3.10;;;;;;;24.41;34.39;95216.66;6165197;28;102986;-55
2022/05/16 13:06:40;;;;;;;3.63;3.33;;;;;;;24.41;33.98;95205.94;6154507;28;104357;-54
2022/05/16 13:09:57;;;;;;;3.63;3.33;;;;;;;24.41;34.43;95197.91;6165003;28;104029;-54
2022/05/16 13:13:10;;;;;;;3.83;3.53;;;;;;;24.39;33.57;95192.09;6164664;28;103985;-57
2022/05/16 13:16:23;;;;;;;8.03;7.43;;;;;;;24.32;34.42;95197.91;6154848;28;105602;-57
2022/05/16 13:19:32;;;;;;;7.17;6.53;;;;;;;24.28;34.19;95198.88;6163275;28;104147;-57
2022/05/16 13:22:37;;;;;;;9.50;8.70;;;;;;;24.25;34.10;95194.94;6164894;28;104002;-57
2022/05/16 13:32:29;;;;;;;6.83;6.23;;;;;;;24.36;34.14;95192.72;6164391;28;103051;-54
2022/05/16 13:35:36;;;;;;;7.70;5.87;;;;;;;24.36;34.19;95195.38;6163686;28;104067;-55
2022/05/16 13:38:39;;;;;;;5.90;5.40;;;;;;;24.36;34.23;95208.75;6154781;28;103910;-55
2022/05/16 13:41:45;;;;;;;6.57;5.97;;;;;;;24.36;34.21;95200.75;6163650;28;103281;-54
2022/05/16 13:44:49;;;;;;;5.27;4.87;;;;;;;24.34;34.40;95201.06;6164422;28;104115;-54
2022/05/16 13:47:53;;;;;;;6.07;5.53;;;;;;;24.36;33.97;95198.88;6164027;28;103318;-55
2022/05/16 13:50:59;;;;;;;5.77;5.30;;;;;;;24.36;34.07;95190.03;6152880;28;104178;-54
2022/05/16 13:54:05;;;;;;;4.83;4.53;;;;;;;24.35;33.94;95191.94;6163918;28;102993;-54
2022/05/16 13:57:12;;;;;;;5.27;4.77;;;;;;;24.35;34.08;95186.59;6163223;28;102854;-54
2022/05/16 14:00:25;;;;;;;4.77;4.40;;;;;;;24.35;33.86;95191.94;6163777;28;104410;-54
2022/05/16 14:03:30;;;;;;;4.77;4.47;;;;;;;24.33;33.88;95183.44;6153445;28;103120;-55
2022/05/16 14:06:38;;;;;;;4.70;4.30;;;;;;;24.34;33.91;95194.91;6163811;28;104317;-55
2022/05/16 14:09:45;;;;;;;4.60;4.30;;;;;;;24.33;34.03;95196.81;6163955;28;103981;-54
2022/05/16 14:12:54;;;;;;;4.60;4.30;;;;;;;24.35;33.81;95193.81;6152795;28;102994;-54
2022/05/16 14:16:05;;;;;;;5.10;4.70;;;;;;;24.34;33.79;95193.03;6162999;28;103949;-54
2022/05/16 14:19:12;;;;;;;4.27;3.97;;;;;;;24.34;33.78;95187.69;6162666;28;102986;-54
2022/05/16 14:22:28;;;;;;;4.20;3.80;;;;;;;24.33;33.78;95185.31;6163311;28;103000;-54
2022/05/16 14:25:38;;;;;;;4.10;3.80;;;;;;;24.33;33.94;95180.75;6152783;28;103380;-54
2022/05/16 14:28:47;;;;;;;3.80;3.50;;;;;;;24.34;33.36;95174.31;6162643;28;103209;-54
2022/05/16 14:32:01;;;;;;;3.90;3.60;;;;;;;24.36;33.18;95182.00;6163788;28;103772;-54
2022/05/16 14:35:10;;;;;;;4.07;3.67;;;;;;;24.37;33.14;95172.91;6156900;28;103040;-55
2022/05/16 14:38:15;;;;;;;2.93;2.73;;;;;;;24.36;32.64;95177.47;6158193;28;103199;-55
2022/05/16 14:41:22;;;;;;;3.80;3.20;;;;;;;24.36;33.07;95179.34;6162041;28;104305;-54
2022/05/16 14:44:33;;;;;;;3.53;3.23;;;;;;;24.34;33.34;95173.53;6162189;28;103188;-55
2022/05/16 14:47:41;;;;;;;3.13;2.93;;;;;;;24.35;33.51;95175.09;6150936;28;103770;-54
2022/05/16 14:50:45;;;;;;;4.07;3.57;;;;;;;24.32;33.74;95168.50;6163173;28;103181;-54
2022/05/16 14:53:48;;;;;;;3.90;3.60;;;;;;;24.35;33.15;95169.75;6162908;28;103978;-58
2022/05/16 14:56:52;;;;;;;4.43;4.10;;;;;;;24.38;32.43;95175.28;6162425;28;103048;-59
2022/05/16 14:59:56;;;;;;;6.37;4.40;;;;;;;24.38;32.41;95169.91;6153259;28;102907;-59
2022/05/16 15:06:22;;;;;;;9.43;5.40;;;;;;;24.37;32.17;95165.69;6163015;28;104242;-59
2022/05/16 15:09:26;;;;;;;7.13;6.43;;;;;;;24.47;32.87;95161.88;6155014;28;104029;-58
2022/05/16 15:12:30;;;;;;;8.50;7.70;;;;;;;24.45;33.12;95162.19;6161066;28;103995;-58
2022/05/16 15:15:35;;;;;;;7.53;6.90;;;;;;;24.43;33.22;95156.38;6162252;28;103113;-58
2022/05/16 15:18:39;;;;;;;9.73;8.70;;;;;;;24.44;34.01;95163.28;6162294;28;103947;-58
2022/05/16 15:21:46;;;;;;;8.57;7.97;;;;;;;24.45;34.37;95164.06;6152795;28;104433;-58